createdAt,value
2022-10-16T00:01:21.936Z,4.53
2022-10-16T00:03:49.395Z,3.35
2022-10-16T00:06:18.486Z,4.93
2022-10-16T00:08:45.766Z,4.18
2022-10-16T00:11:21.463Z,3.28
2022-10-16T00:13:49.828Z,3.70
2022-10-16T00:16:17.839Z,4.68
2022-10-16T00:18:44.481Z,6.90
2022-10-16T00:21:20.120Z,3.40
2022-10-16T00:23:47.067Z,4.53
2022-10-16T00:26:16.126Z,2.90
2022-10-16T00:28:42.842Z,4.90
2022-10-16T00:31:12.280Z,4.15
2022-10-16T00:33:40.813Z,2.53
2022-10-16T00:36:09.246Z,2.63
2022-10-16T00:38:36.013Z,4.13
2022-10-16T00:41:02.589Z,2.38
2022-10-16T00:43:38.972Z,2.65
2022-10-16T00:46:36.493Z,4.75
2022-10-16T00:49:12.688Z,4.38
2022-10-16T00:51:48.604Z,2.78
2022-10-16T00:54:22.752Z,3.13
2022-10-16T00:56:50.611Z,3.00
2022-10-16T00:59:21.013Z,2.63
2022-10-16T01:01:47.728Z,4.00
2022-10-16T01:04:14.353Z,2.88
2022-10-16T01:06:59.125Z,3.65
2022-10-16T01:09:52.443Z,2.78
2022-10-16T01:12:38.440Z,3.22
2022-10-16T01:15:32.070Z,2.33
2022-10-16T01:18:06.381Z,2.92
2022-10-16T01:21:06.833Z,4.90
2022-10-16T01:24:04.355Z,4.60
2022-10-16T01:26:33.936Z,4.13
2022-10-16T01:29:17.874Z,4.28
2022-10-16T01:31:51.311Z,5.60
2022-10-16T01:34:24.122Z,7.72
2022-10-16T01:37:03.461Z,4.20
2022-10-16T01:39:34.505Z,5.07
2022-10-16T01:42:20.229Z,4.13
2022-10-16T01:44:48.250Z,6.00
2022-10-16T01:47:16.776Z,3.65
2022-10-16T01:49:44.826Z,3.85
2022-10-16T01:52:16.859Z,3.95
2022-10-16T01:54:46.853Z,2.30
2022-10-16T01:57:15.266Z,6.22
2022-10-16T01:59:47.045Z,2.10
2022-10-16T02:02:14.331Z,3.28
2022-10-16T02:04:50.611Z,3.13
2022-10-16T02:07:17.630Z,3.80
2022-10-16T02:09:44.579Z,3.95
2022-10-16T02:12:23.422Z,4.07
2022-10-16T02:14:50.385Z,3.50
2022-10-16T02:17:18.578Z,3.83
2022-10-16T02:19:48.771Z,2.80
2022-10-16T02:22:28.768Z,4.22
2022-10-16T02:25:14.162Z,2.13
2022-10-16T02:27:54.678Z,2.40
2022-10-16T02:30:49.083Z,3.40
2022-10-16T02:33:17.150Z,3.97
2022-10-16T02:35:47.319Z,4.70
2022-10-16T02:38:16.123Z,3.13
2022-10-16T02:40:43.667Z,3.03
2022-10-16T02:43:10.885Z,4.43
2022-10-16T02:45:37.734Z,3.55
2022-10-16T02:48:04.523Z,2.15
2022-10-16T02:50:31.089Z,2.15
2022-10-16T02:52:57.651Z,1.38
2022-10-16T02:55:24.290Z,1.42
2022-10-16T02:57:50.865Z,1.88
2022-10-16T03:00:18.759Z,1.05
2022-10-16T03:02:45.494Z,2.10
2022-10-16T03:05:12.367Z,1.48
2022-10-16T03:07:39.009Z,2.60
2022-10-16T03:10:06.156Z,1.45
2022-10-16T03:12:32.850Z,3.22
2022-10-16T03:14:59.425Z,1.73
2022-10-16T03:17:26.729Z,3.42
2022-10-16T03:19:53.635Z,1.98
2022-10-16T03:22:20.386Z,2.10
2022-10-16T03:24:47.008Z,2.22
2022-10-16T03:27:13.614Z,2.00
2022-10-16T03:29:40.176Z,2.42
2022-10-16T03:32:06.813Z,2.17
2022-10-16T03:34:33.419Z,4.13
2022-10-16T03:36:59.994Z,3.17
2022-10-16T03:39:26.570Z,2.50
2022-10-16T03:41:53.138Z,3.60
2022-10-16T03:44:19.705Z,2.40
2022-10-16T03:46:46.311Z,2.80
2022-10-16T03:49:12.962Z,2.40
2022-10-16T03:51:39.635Z,3.03
2022-10-16T03:54:06.262Z,3.33
2022-10-16T03:56:32.861Z,3.30
2022-10-16T03:58:59.417Z,3.00
2022-10-16T04:01:26.158Z,3.63
2022-10-16T04:03:52.778Z,3.97
2022-10-16T04:06:19.525Z,2.75
2022-10-16T04:08:46.398Z,0.95
2022-10-16T04:11:13.023Z,1.98
2022-10-16T04:13:39.628Z,3.40
2022-10-16T04:16:06.385Z,1.05
2022-10-16T04:18:32.955Z,2.42
2022-10-16T04:21:08.613Z,1.00
2022-10-16T04:23:35.180Z,1.80
2022-10-16T04:26:02.126Z,3.13
2022-10-16T04:28:29.160Z,3.33
2022-10-16T04:30:56.062Z,4.00
2022-10-16T04:33:22.706Z,3.53
2022-10-16T04:35:49.301Z,3.03
2022-10-16T04:38:15.921Z,3.80
2022-10-16T04:40:43.836Z,3.38
2022-10-16T04:43:10.521Z,2.38
2022-10-16T04:45:37.093Z,2.72
2022-10-16T04:48:03.817Z,2.70
2022-10-16T04:50:30.415Z,4.15
2022-10-16T04:53:06.611Z,6.20
2022-10-16T04:55:33.399Z,4.80
2022-10-16T04:58:00.033Z,5.90
2022-10-16T05:00:26.716Z,5.18
2022-10-16T05:02:53.802Z,4.20
2022-10-16T05:05:20.611Z,3.20
2022-10-16T05:07:48.765Z,2.90
2022-10-16T05:10:15.399Z,3.65
2022-10-16T05:12:42.040Z,4.45
2022-10-16T05:15:09.221Z,3.65
2022-10-16T05:17:36.704Z,4.25
2022-10-16T05:20:05.165Z,4.78
2022-10-16T05:22:31.747Z,4.22
2022-10-16T05:24:58.323Z,4.30
2022-10-16T05:27:25.115Z,3.22
2022-10-16T05:29:51.933Z,2.90
2022-10-16T05:32:19.535Z,2.65
2022-10-16T05:34:46.567Z,3.50
2022-10-16T05:37:13.553Z,4.32
2022-10-16T05:39:40.290Z,4.32
2022-10-16T05:42:07.122Z,5.30
2022-10-16T05:47:05.461Z,4.10
2022-10-16T05:49:32.050Z,2.60
2022-10-16T05:51:58.645Z,2.65
2022-10-16T05:54:25.190Z,2.55
2022-10-16T05:56:51.778Z,2.50
2022-10-16T05:59:18.394Z,1.33
2022-10-16T06:01:44.993Z,2.17
2022-10-16T06:06:43.340Z,6.90
2022-10-16T06:09:10.311Z,4.03
2022-10-16T06:11:37.327Z,2.60
2022-10-16T06:14:07.648Z,2.72
2022-10-16T06:16:38.073Z,2.88
2022-10-16T06:19:07.492Z,2.70
2022-10-16T06:21:34.315Z,2.65
2022-10-16T06:24:00.966Z,2.72
2022-10-16T06:26:30.439Z,2.25
2022-10-16T06:28:59.308Z,3.85
2022-10-16T06:31:31.645Z,3.88
2022-10-16T06:33:58.823Z,2.40
2022-10-16T06:36:26.234Z,3.00
2022-10-16T06:38:53.051Z,3.85
2022-10-16T06:41:21.984Z,3.58
2022-10-16T06:43:49.449Z,2.72
2022-10-16T06:46:18.503Z,2.55
2022-10-16T06:48:45.466Z,2.80
2022-10-16T06:51:20.018Z,3.10
2022-10-16T06:54:02.854Z,2.80
2022-10-16T06:56:32.034Z,2.45
2022-10-16T06:58:59.393Z,2.03
2022-10-16T07:01:26.141Z,3.40
2022-10-16T07:03:53.862Z,4.05
2022-10-16T07:06:23.191Z,4.35
2022-10-16T07:08:49.989Z,3.17
2022-10-16T07:11:19.716Z,2.33
2022-10-16T07:13:50.970Z,2.03
2022-10-16T07:16:24.673Z,4.38
2022-10-16T07:18:55.197Z,3.15
2022-10-16T07:21:23.676Z,2.30
2022-10-16T07:24:02.152Z,2.92
2022-10-16T07:26:31.917Z,2.65
2022-10-16T07:28:58.655Z,2.50
2022-10-16T07:31:26.132Z,3.95
2022-10-16T07:33:52.873Z,3.42
2022-10-16T07:36:21.101Z,3.50
2022-10-16T07:38:48.060Z,4.13
2022-10-16T07:41:16.739Z,3.40
2022-10-16T07:43:48.345Z,2.75
2022-10-16T07:46:15.613Z,2.78
2022-10-16T07:48:42.209Z,2.90
2022-10-16T07:51:10.144Z,2.95
2022-10-16T07:53:36.693Z,1.60
2022-10-16T07:56:06.906Z,2.95
2022-10-16T07:58:35.338Z,3.63
2022-10-16T08:01:05.885Z,3.63
2022-10-16T08:03:33.047Z,10.23
2022-10-16T08:06:00.898Z,22.00
2022-10-16T08:08:28.276Z,7.88
2022-10-16T08:10:55.005Z,6.47
2022-10-16T08:13:21.845Z,3.88
2022-10-16T08:15:48.803Z,3.15
2022-10-16T08:18:16.627Z,2.25
2022-10-16T08:20:44.269Z,5.80
2022-10-16T08:23:12.805Z,3.30
2022-10-16T08:25:39.897Z,1.63
2022-10-16T08:28:07.936Z,1.42
2022-10-16T08:30:35.313Z,1.23
2022-10-16T08:33:02.598Z,1.80
2022-10-16T08:35:29.217Z,1.33
2022-10-16T08:37:56.033Z,4.38
2022-10-16T08:40:32.063Z,2.60
2022-10-16T08:43:22.124Z,1.17
2022-10-16T08:46:16.580Z,1.77
2022-10-16T08:48:43.101Z,1.90
2022-10-16T08:51:14.775Z,1.77
2022-10-16T08:53:51.523Z,1.67
2022-10-16T08:56:19.000Z,2.28
2022-10-16T09:01:23.890Z,2.28
2022-10-16T09:03:53.885Z,1.70
2022-10-16T09:06:23.197Z,0.70
2022-10-16T09:09:14.442Z,1.20
2022-10-16T09:12:06.157Z,2.13
2022-10-16T09:14:48.829Z,2.05
2022-10-16T09:17:15.342Z,2.80
2022-10-16T09:19:50.634Z,3.90
2022-10-16T09:22:19.161Z,3.97
2022-10-16T09:24:46.419Z,3.22
2022-10-16T09:27:15.580Z,3.15
2022-10-16T09:29:42.188Z,2.15
2022-10-16T09:32:14.849Z,1.83
2022-10-16T09:34:58.053Z,4.15
2022-10-16T09:37:26.181Z,0.95
2022-10-16T09:39:54.684Z,1.00
2022-10-16T09:42:25.337Z,0.85
2022-10-16T09:44:54.499Z,0.73
2022-10-16T09:47:24.643Z,0.70
2022-10-16T09:50:06.877Z,0.82
2022-10-16T09:52:34.320Z,1.38
2022-10-16T09:55:03.893Z,0.80
2022-10-16T09:57:31.707Z,1.35
2022-10-16T09:59:59.599Z,2.28
2022-10-16T10:02:32.877Z,1.63
2022-10-16T10:04:59.465Z,0.95
2022-10-16T10:07:35.402Z,1.63
2022-10-16T10:10:05.267Z,0.82
2022-10-16T10:12:34.141Z,1.00
2022-10-16T10:15:08.379Z,1.02
2022-10-16T10:17:35.401Z,1.48
2022-10-16T10:20:22.555Z,1.73
2022-10-16T10:22:49.229Z,0.95
2022-10-16T10:25:30.700Z,1.27
2022-10-16T10:28:12.438Z,2.33
2022-10-16T10:30:50.877Z,1.75
2022-10-16T10:33:39.761Z,0.77
2022-10-16T10:36:28.704Z,0.85
2022-10-16T10:39:37.161Z,1.02
2022-10-16T10:42:18.933Z,2.53
2022-10-16T10:44:55.307Z,1.88
2022-10-16T10:47:43.438Z,1.40
2022-10-16T10:50:47.101Z,2.20
2022-10-16T10:53:33.053Z,1.00
2022-10-16T10:56:09.154Z,1.02
2022-10-16T10:59:00.626Z,0.95
2022-10-16T11:01:37.065Z,0.90
2022-10-16T11:04:22.022Z,1.80
2022-10-16T11:07:04.988Z,0.98
2022-10-16T11:09:49.429Z,1.60
2022-10-16T11:12:22.795Z,1.48
2022-10-16T11:15:08.089Z,1.92
2022-10-16T11:18:08.913Z,1.67
2022-10-16T11:20:46.425Z,1.95
2022-10-16T11:23:22.960Z,2.58
2022-10-16T11:25:50.126Z,2.25
2022-10-16T11:29:00.138Z,1.80
2022-10-16T11:31:39.072Z,1.70
2022-10-16T11:34:35.518Z,2.80
2022-10-16T11:37:20.265Z,2.05
2022-10-16T11:39:48.335Z,1.52
2022-10-16T11:42:23.323Z,1.08
2022-10-16T11:45:10.083Z,2.60
2022-10-16T11:47:58.906Z,1.30
2022-10-16T11:50:41.780Z,0.93
2022-10-16T11:53:39.318Z,1.45
2022-10-16T11:56:06.607Z,0.90
2022-10-16T11:58:43.046Z,0.98
2022-10-16T12:01:29.569Z,1.25
2022-10-16T12:04:21.573Z,1.15
2022-10-16T12:06:56.466Z,0.95
2022-10-16T12:09:26.997Z,0.55
2022-10-16T12:11:54.413Z,1.30
2022-10-16T12:14:34.992Z,1.25
2022-10-16T12:17:24.166Z,1.50
2022-10-16T12:20:22.705Z,2.22
2022-10-16T12:22:55.624Z,1.63
2022-10-16T12:25:23.874Z,1.65
2022-10-16T12:28:13.811Z,2.65
2022-10-16T12:30:42.690Z,1.23
2022-10-16T12:33:34.088Z,1.52
2022-10-16T12:36:04.618Z,2.35
2022-10-16T12:38:46.251Z,1.45
2022-10-16T12:41:15.222Z,1.35
2022-10-16T12:43:47.531Z,1.75
2022-10-16T12:46:14.026Z,1.45
2022-10-16T12:48:49.435Z,1.60
2022-10-16T12:51:31.937Z,1.25
2022-10-16T12:54:18.062Z,1.75
2022-10-16T12:56:59.766Z,1.67
2022-10-16T13:00:10.783Z,1.33
2022-10-16T13:02:58.035Z,1.23
2022-10-16T13:05:47.067Z,1.23
2022-10-16T13:08:28.501Z,1.98
2022-10-16T13:11:09.775Z,1.52
2022-10-16T13:14:13.646Z,1.95
2022-10-16T13:17:10.344Z,1.10
2022-10-16T13:19:48.092Z,1.60
2022-10-16T13:22:38.120Z,2.20
2022-10-16T13:25:22.928Z,1.27
2022-10-16T13:27:49.428Z,1.35
2022-10-16T13:30:30.765Z,1.52
2022-10-16T13:33:18.018Z,0.98
2022-10-16T13:35:56.022Z,1.50
2022-10-16T13:38:31.388Z,1.58
2022-10-16T13:41:05.240Z,1.58
2022-10-16T13:43:46.161Z,2.75
2022-10-16T13:46:18.760Z,1.83
2022-10-16T13:48:56.768Z,0.90
2022-10-16T13:53:58.084Z,2.25
2022-10-16T13:56:30.377Z,0.98
2022-10-16T13:59:40.527Z,0.70
2022-10-16T14:02:35.969Z,2.45
2022-10-16T14:05:05.424Z,1.77
2022-10-16T14:07:35.081Z,0.75
2022-10-16T14:10:08.179Z,1.55
2022-10-16T14:12:35.612Z,1.60
2022-10-16T14:15:02.743Z,0.68
2022-10-16T14:17:35.923Z,1.52
2022-10-16T14:20:07.088Z,0.70
2022-10-16T14:22:37.394Z,1.67
2022-10-16T14:25:20.914Z,1.60
2022-10-16T14:28:15.782Z,2.75
2022-10-16T14:30:55.901Z,1.67
2022-10-16T14:33:31.495Z,1.13
2022-10-16T14:36:05.865Z,1.85
2022-10-16T14:38:34.065Z,1.10
2022-10-16T14:41:01.754Z,0.95
2022-10-16T14:43:37.866Z,2.72
2022-10-16T14:46:17.097Z,2.20
2022-10-16T14:48:47.282Z,3.25
2022-10-16T14:51:18.209Z,4.68
2022-10-16T14:53:44.905Z,1.58
2022-10-16T14:56:19.331Z,1.63
2022-10-16T14:58:45.982Z,3.58
2022-10-16T15:01:12.646Z,1.02
2022-10-16T15:03:40.148Z,1.88
2022-10-16T15:06:14.541Z,1.40
2022-10-16T15:08:41.162Z,1.90
2022-10-16T15:11:15.318Z,3.67
2022-10-16T15:13:42.194Z,2.67
2022-10-16T15:16:12.629Z,2.03
2022-10-16T15:18:39.310Z,2.72
2022-10-16T15:21:06.148Z,3.40
2022-10-16T15:23:32.755Z,5.03
2022-10-16T15:25:59.435Z,1.95
2022-10-16T15:28:26.839Z,2.35
2022-10-16T15:30:55.454Z,2.83
2022-10-16T15:33:37.112Z,2.47
2022-10-16T15:36:06.791Z,2.90
2022-10-16T15:38:33.586Z,3.10
2022-10-16T15:41:00.202Z,3.17
2022-10-16T15:43:27.184Z,3.88
2022-10-16T15:46:11.125Z,3.75
2022-10-16T15:48:37.729Z,3.80
2022-10-16T15:51:08.761Z,3.40
2022-10-16T15:53:35.950Z,4.80
2022-10-16T15:56:04.366Z,3.50
2022-10-16T15:58:31.170Z,7.10
2022-10-16T16:00:59.160Z,4.60
2022-10-16T16:03:25.752Z,5.60
2022-10-16T16:05:52.386Z,6.20
2022-10-16T16:08:18.978Z,5.57
2022-10-16T16:10:45.637Z,5.30
2022-10-16T16:13:12.236Z,7.72
2022-10-16T16:15:41.733Z,5.13
2022-10-16T16:18:10.586Z,4.78
2022-10-16T16:20:37.525Z,5.65
2022-10-16T16:23:04.099Z,4.15
2022-10-16T16:25:30.724Z,6.70
2022-10-16T16:27:57.963Z,6.15
2022-10-16T16:30:28.098Z,4.72
2022-10-16T16:32:55.092Z,4.75
2022-10-16T16:35:21.709Z,8.40
2022-10-16T16:37:48.759Z,4.65
2022-10-16T16:40:15.438Z,5.50
2022-10-16T16:42:42.046Z,4.53
2022-10-16T16:45:09.289Z,4.60
2022-10-16T16:47:35.838Z,5.40
2022-10-16T16:50:05.847Z,5.00
2022-10-16T16:52:32.583Z,9.57
2022-10-16T16:54:59.145Z,5.65
2022-10-16T16:57:26.148Z,6.05
2022-10-16T16:59:52.977Z,5.28
2022-10-16T17:02:19.711Z,6.28
2022-10-16T17:04:46.426Z,7.78
2022-10-16T17:07:13.019Z,5.65
2022-10-16T17:09:39.626Z,5.13
2022-10-16T17:12:06.223Z,8.43
2022-10-16T17:14:33.276Z,7.00
2022-10-16T17:16:59.938Z,8.05
2022-10-16T17:19:26.583Z,7.70
2022-10-16T17:21:53.302Z,8.32
2022-10-16T17:24:21.587Z,9.02
2022-10-16T17:26:49.297Z,9.82
2022-10-16T17:29:18.358Z,7.18
2022-10-16T17:31:45.790Z,8.90
2022-10-16T17:34:12.793Z,6.95
2022-10-16T17:36:43.963Z,8.18
2022-10-16T17:39:13.234Z,8.35
2022-10-16T17:41:40.076Z,7.53
2022-10-16T17:44:07.422Z,7.70
2022-10-16T17:46:38.341Z,7.90
2022-10-16T17:49:08.099Z,7.18
2022-10-16T17:51:34.767Z,7.18
2022-10-16T17:54:02.434Z,8.50
2022-10-16T17:56:30.116Z,8.75
2022-10-16T17:59:00.443Z,13.02
2022-10-16T18:01:41.710Z,9.23
2022-10-16T18:04:13.032Z,9.45
2022-10-16T18:06:41.536Z,9.00
2022-10-16T18:09:10.580Z,10.77
2022-10-16T18:11:37.941Z,13.75
2022-10-16T18:14:05.003Z,10.27
2022-10-16T18:16:32.343Z,10.68
2022-10-16T18:18:59.513Z,12.68
2022-10-16T18:21:27.847Z,10.93
2022-10-16T18:23:55.328Z,10.43
2022-10-16T18:26:23.222Z,10.48
2022-10-16T18:28:54.301Z,10.68
2022-10-16T18:31:23.009Z,12.98
2022-10-16T18:33:51.281Z,11.27
2022-10-16T18:36:23.944Z,11.18
2022-10-16T18:38:50.618Z,11.75
2022-10-16T18:41:17.335Z,15.75
2022-10-16T18:43:44.283Z,11.70
2022-10-16T18:46:19.280Z,13.95
2022-10-16T18:48:50.039Z,14.70
2022-10-16T18:51:37.955Z,13.13
2022-10-16T18:54:09.223Z,15.80
2022-10-16T18:56:36.592Z,13.68
2022-10-16T18:59:06.204Z,13.65
2022-10-16T19:01:35.164Z,13.23
2022-10-16T19:04:07.647Z,13.43
2022-10-16T19:06:36.819Z,15.80
2022-10-16T19:09:04.514Z,13.50
2022-10-16T19:11:32.051Z,13.15
2022-10-16T19:13:59.127Z,12.60
2022-10-16T19:16:31.835Z,16.00
2022-10-16T19:19:01.181Z,12.82
2022-10-16T19:21:30.227Z,12.48
2022-10-16T19:23:59.198Z,12.23
2022-10-16T19:26:28.183Z,12.55
2022-10-16T19:28:58.285Z,11.48
2022-10-16T19:31:26.856Z,12.00
2022-10-16T19:33:55.508Z,11.63
2022-10-16T19:36:23.766Z,10.77
2022-10-16T19:38:58.284Z,11.50
2022-10-16T19:41:27.678Z,10.88
2022-10-16T19:43:55.209Z,10.00
2022-10-16T19:46:25.725Z,9.85
2022-10-16T19:49:00.980Z,10.85
2022-10-16T19:51:28.954Z,9.82
2022-10-16T19:53:58.082Z,8.43
2022-10-16T19:56:27.974Z,8.32
2022-10-16T19:58:56.407Z,7.90
2022-10-16T20:01:25.017Z,7.43
2022-10-16T20:03:52.195Z,9.63
2022-10-16T20:06:20.173Z,9.80
2022-10-16T20:08:49.046Z,8.25
2022-10-16T20:11:19.122Z,6.93
2022-10-16T20:13:46.328Z,7.00
2022-10-16T20:16:14.332Z,7.43
2022-10-16T20:18:41.544Z,6.15
2022-10-16T20:21:19.984Z,6.93
2022-10-16T20:23:48.938Z,7.43
2022-10-16T20:26:17.372Z,6.50
2022-10-16T20:28:44.851Z,6.63
2022-10-16T20:31:18.340Z,10.30
2022-10-16T20:33:45.966Z,6.70
2022-10-16T20:36:14.432Z,6.35
2022-10-16T20:38:42.184Z,6.57
2022-10-16T20:41:10.148Z,6.70
2022-10-16T20:43:41.318Z,5.78
2022-10-16T20:46:11.151Z,8.82
2022-10-16T20:48:41.415Z,6.95
2022-10-16T20:51:29.043Z,6.20
2022-10-16T20:54:00.702Z,8.55
2022-10-16T20:56:30.511Z,7.05
2022-10-16T20:58:58.386Z,8.07
2022-10-16T21:01:27.418Z,7.88
2022-10-16T21:03:59.592Z,6.90
2022-10-16T21:06:26.778Z,6.68
2022-10-16T21:08:54.245Z,6.57
2022-10-16T21:11:24.026Z,7.03
2022-10-16T21:13:55.509Z,5.90
2022-10-16T21:16:22.414Z,4.55
2022-10-16T21:18:49.459Z,5.90
2022-10-16T21:21:22.248Z,7.55
2022-10-16T21:23:50.587Z,4.85
2022-10-16T21:26:18.698Z,6.05
2022-10-16T21:28:45.964Z,4.90
2022-10-16T21:31:22.796Z,7.47
2022-10-16T21:33:50.590Z,6.03
2022-10-16T21:36:20.051Z,6.22
2022-10-16T21:38:47.609Z,6.07
2022-10-16T21:41:23.711Z,8.55
2022-10-16T21:43:51.242Z,7.25
2022-10-16T21:46:20.856Z,5.60
2022-10-16T21:48:47.995Z,7.38
2022-10-16T21:51:15.530Z,6.30
2022-10-16T21:53:42.145Z,6.18
2022-10-16T21:56:14.344Z,6.05
2022-10-16T21:58:40.941Z,6.07
2022-10-16T22:01:09.638Z,4.25
2022-10-16T22:03:36.307Z,7.78
2022-10-16T22:06:06.705Z,4.35
2022-10-16T22:08:34.894Z,5.35
2022-10-16T22:11:22.994Z,5.30
2022-10-16T22:13:54.326Z,5.50
2022-10-16T22:16:25.630Z,5.93
2022-10-16T22:18:53.572Z,5.75
2022-10-16T22:21:20.275Z,3.85
2022-10-16T22:23:46.913Z,5.00
2022-10-16T22:26:13.481Z,6.05
2022-10-16T22:28:41.023Z,6.38
2022-10-16T22:31:10.664Z,5.35
2022-10-16T22:33:37.770Z,5.25
2022-10-16T22:36:06.587Z,5.78
2022-10-16T22:38:35.311Z,6.88
2022-10-16T22:41:06.763Z,5.68
2022-10-16T22:43:42.723Z,5.13
2022-10-16T22:46:11.595Z,5.18
2022-10-16T22:48:38.269Z,6.35
2022-10-16T22:51:05.965Z,3.90
2022-10-16T22:53:33.262Z,6.32
2022-10-16T22:56:00.047Z,6.80
2022-10-16T22:58:26.815Z,5.97
2022-10-16T23:00:53.654Z,4.57
2022-10-16T23:03:20.413Z,6.75
2022-10-16T23:05:47.061Z,6.72
2022-10-16T23:08:15.144Z,5.80
2022-10-16T23:10:43.498Z,6.68
2022-10-16T23:13:10.137Z,5.10
2022-10-16T23:15:41.294Z,6.68
2022-10-16T23:18:08.232Z,5.10
2022-10-16T23:20:35.630Z,4.68
2022-10-16T23:23:02.163Z,4.97
2022-10-16T23:25:28.819Z,5.72
2022-10-16T23:27:55.994Z,5.68
2022-10-16T23:30:22.606Z,5.95
2022-10-16T23:32:49.170Z,6.53
2022-10-16T23:35:15.852Z,8.40
2022-10-16T23:37:42.402Z,5.75
2022-10-16T23:40:09.323Z,8.02
2022-10-16T23:42:35.902Z,5.13
2022-10-16T23:45:02.520Z,7.72
2022-10-16T23:47:29.390Z,6.07
2022-10-16T23:49:56.206Z,5.05
2022-10-16T23:52:22.766Z,5.53
2022-10-16T23:54:49.401Z,5.57
2022-10-16T23:57:16.092Z,3.67
2022-10-16T23:59:42.659Z,7.63
